sensor_id;sensor_type;location;lat;lon;timestamp;pressure;altitude;pressure_sealevel;temperature;humidity
70254;BME280;57649;42.968;1.608;2023-02-10T00:01:15;99192.84;;;0.94;88.04
70254;BME280;57649;42.968;1.608;2023-02-10T00:03:41;99188.63;;;0.90;88.82
70254;BME280;57649;42.968;1.608;2023-02-10T00:06:08;99184.13;;;0.92;88.22
70254;BME280;57649;42.968;1.608;2023-02-10T00:08:34;99186.88;;;0.89;88.21
70254;BME280;57649;42.968;1.608;2023-02-10T00:11:02;99191.16;;;0.91;88.22
70254;BME280;57649;42.968;1.608;2023-02-10T00:13:29;99187.31;;;0.78;88.85
70254;BME280;57649;42.968;1.608;2023-02-10T00:15:57;99182.66;;;0.85;89.04
70254;BME280;57649;42.968;1.608;2023-02-10T00:18:22;99181.31;;;0.74;89.01
70254;BME280;57649;42.968;1.608;2023-02-10T00:20:48;99180.34;;;0.77;89.15
70254;BME280;57649;42.968;1.608;2023-02-10T00:23:13;99177.47;;;0.83;88.64
70254;BME280;57649;42.968;1.608;2023-02-10T00:25:39;99171.72;;;0.73;88.72
70254;BME280;57649;42.968;1.608;2023-02-10T00:28:04;99186.34;;;0.81;89.15
70254;BME280;57649;42.968;1.608;2023-02-10T00:30:30;99179.78;;;0.69;89.80
70254;BME280;57649;42.968;1.608;2023-02-10T00:32:56;99171.84;;;0.70;89.84
70254;BME280;57649;42.968;1.608;2023-02-10T00:35:21;99169.81;;;0.55;91.53
70254;BME280;57649;42.968;1.608;2023-02-10T00:37:47;99169.25;;;0.47;91.57
70254;BME280;57649;42.968;1.608;2023-02-10T00:40:12;99174.78;;;0.41;91.67
70254;BME280;57649;42.968;1.608;2023-02-10T00:42:37;99176.25;;;0.48;90.68
70254;BME280;57649;42.968;1.608;2023-02-10T00:45:04;99170.75;;;0.54;89.44
70254;BME280;57649;42.968;1.608;2023-02-10T00:47:29;99173.69;;;0.46;89.48
70254;BME280;57649;42.968;1.608;2023-02-10T00:49:55;99165.78;;;0.46;89.59
70254;BME280;57649;42.968;1.608;2023-02-10T00:52:21;99168.16;;;0.52;89.36
70254;BME280;57649;42.968;1.608;2023-02-10T00:54:47;99170.38;;;0.41;89.90
70254;BME280;57649;42.968;1.608;2023-02-10T00:57:12;99162.56;;;0.38;89.89
70254;BME280;57649;42.968;1.608;2023-02-10T00:59:37;99170.47;;;0.38;89.57
70254;BME280;57649;42.968;1.608;2023-02-10T01:02:03;99162.34;;;0.44;88.72
70254;BME280;57649;42.968;1.608;2023-02-10T01:04:28;99158.78;;;0.45;88.88
70254;BME280;57649;42.968;1.608;2023-02-10T01:06:54;99163.16;;;0.46;87.71
70254;BME280;57649;42.968;1.608;2023-02-10T01:09:19;99169.00;;;0.53;87.54
70254;BME280;57649;42.968;1.608;2023-02-10T01:11:44;99157.81;;;0.48;87.99
70254;BME280;57649;42.968;1.608;2023-02-10T01:14:10;99167.09;;;0.56;87.16
70254;BME280;57649;42.968;1.608;2023-02-10T01:16:35;99157.63;;;0.52;87.26
70254;BME280;57649;42.968;1.608;2023-02-10T01:19:02;99169.31;;;0.45;88.17
70254;BME280;57649;42.968;1.608;2023-02-10T01:21:28;99157.63;;;0.52;88.17
70254;BME280;57649;42.968;1.608;2023-02-10T01:23:53;99159.34;;;0.53;87.47
70254;BME280;57649;42.968;1.608;2023-02-10T01:26:20;99161.31;;;0.48;86.81
70254;BME280;57649;42.968;1.608;2023-02-10T01:28:45;99163.19;;;0.45;86.55
70254;BME280;57649;42.968;1.608;2023-02-10T01:31:17;99161.69;;;0.39;86.50
70254;BME280;57649;42.968;1.608;2023-02-10T01:33:43;99155.56;;;0.38;86.21
70254;BME280;57649;42.968;1.608;2023-02-10T01:36:15;99165.34;;;0.35;86.44
70254;BME280;57649;42.968;1.608;2023-02-10T01:38:41;99157.63;;;0.30;86.73
70254;BME280;57649;42.968;1.608;2023-02-10T01:41:07;99154.88;;;0.33;86.15
70254;BME280;57649;42.968;1.608;2023-02-10T01:43:51;99156.50;;;0.36;86.00
70254;BME280;57649;42.968;1.608;2023-02-10T01:46:18;99158.19;;;0.38;86.41
70254;BME280;57649;42.968;1.608;2023-02-10T01:48:43;99164.53;;;0.33;86.44
70254;BME280;57649;42.968;1.608;2023-02-10T01:51:09;99154.25;;;0.27;86.35
70254;BME280;57649;42.968;1.608;2023-02-10T01:53:34;99151.13;;;0.17;87.05
70254;BME280;57649;42.968;1.608;2023-02-10T01:56:01;99163.66;;;0.10;86.38
70254;BME280;57649;42.968;1.608;2023-02-10T01:58:29;99141.69;;;0.11;87.08
70254;BME280;57649;42.968;1.608;2023-02-10T02:00:56;99142.28;;;-0.04;87.01
70254;BME280;57649;42.968;1.608;2023-02-10T02:03:21;99139.31;;;-0.18;87.91
70254;BME280;57649;42.968;1.608;2023-02-10T02:05:47;99133.09;;;-0.40;87.47
70254;BME280;57649;42.968;1.608;2023-02-10T02:08:24;99136.41;;;-0.58;88.53
70254;BME280;57649;42.968;1.608;2023-02-10T02:16:07;99124.34;;;-0.16;87.15
70254;BME280;57649;42.968;1.608;2023-02-10T02:18:45;99137.59;;;-0.20;87.41
70254;BME280;57649;42.968;1.608;2023-02-10T02:24:31;99142.75;;;-0.16;88.22
70254;BME280;57649;42.968;1.608;2023-02-10T02:32:21;99129.47;;;-0.37;87.93
70254;BME280;57649;42.968;1.608;2023-02-10T02:37:31;99143.19;;;-0.76;88.65
70254;BME280;57649;42.968;1.608;2023-02-10T02:39:58;99131.63;;;-0.72;89.14
70254;BME280;57649;42.968;1.608;2023-02-10T02:42:26;99134.91;;;-0.65;89.44
70254;BME280;57649;42.968;1.608;2023-02-10T02:45:12;99135.97;;;-0.71;88.24
70254;BME280;57649;42.968;1.608;2023-02-10T02:52:56;99129.94;;;-0.49;87.75
70254;BME280;57649;42.968;1.608;2023-02-10T03:01:00;99139.06;;;-0.60;88.63
70254;BME280;57649;42.968;1.608;2023-02-10T03:03:32;99138.94;;;-0.55;88.14
70254;BME280;57649;42.968;1.608;2023-02-10T03:05:59;99133.59;;;-0.53;88.44
70254;BME280;57649;42.968;1.608;2023-02-10T03:08:25;99148.63;;;-0.57;89.02
70254;BME280;57649;42.968;1.608;2023-02-10T03:10:51;99145.19;;;-0.59;88.68
70254;BME280;57649;42.968;1.608;2023-02-10T03:13:16;99145.84;;;-0.52;88.59
70254;BME280;57649;42.968;1.608;2023-02-10T03:15:42;99140.22;;;-0.67;88.49
70254;BME280;57649;42.968;1.608;2023-02-10T03:18:08;99134.25;;;-0.72;88.80
70254;BME280;57649;42.968;1.608;2023-02-10T03:20:34;99134.59;;;-0.81;88.54
70254;BME280;57649;42.968;1.608;2023-02-10T03:22:59;99141.56;;;-0.80;88.68
70254;BME280;57649;42.968;1.608;2023-02-10T03:25:25;99147.47;;;-0.99;88.89
70254;BME280;57649;42.968;1.608;2023-02-10T03:27:50;99142.38;;;-1.03;89.13
70254;BME280;57649;42.968;1.608;2023-02-10T03:30:16;99151.22;;;-1.06;89.77
70254;BME280;57649;42.968;1.608;2023-02-10T03:32:41;99144.38;;;-1.10;89.25
70254;BME280;57649;42.968;1.608;2023-02-10T03:35:07;99153.91;;;-1.07;89.43
70254;BME280;57649;42.968;1.608;2023-02-10T03:37:32;99151.38;;;-1.10;89.75
70254;BME280;57649;42.968;1.608;2023-02-10T03:39:57;99151.41;;;-1.12;90.61
70254;BME280;57649;42.968;1.608;2023-02-10T03:42:23;99136.09;;;-1.24;90.56
70254;BME280;57649;42.968;1.608;2023-02-10T03:44:48;99149.72;;;-1.13;90.86
70254;BME280;57649;42.968;1.608;2023-02-10T03:47:14;99134.75;;;-1.11;90.87
70254;BME280;57649;42.968;1.608;2023-02-10T03:49:39;99134.66;;;-1.08;90.43
70254;BME280;57649;42.968;1.608;2023-02-10T03:52:05;99145.31;;;-1.12;90.73
70254;BME280;57649;42.968;1.608;2023-02-10T03:54:30;99141.94;;;-1.16;91.37
70254;BME280;57649;42.968;1.608;2023-02-10T03:56:56;99148.78;;;-1.12;90.43
70254;BME280;57649;42.968;1.608;2023-02-10T03:59:22;99161.84;;;-1.09;90.14
70254;BME280;57649;42.968;1.608;2023-02-10T04:01:47;99158.31;;;-1.08;90.31
70254;BME280;57649;42.968;1.608;2023-02-10T04:04:13;99165.94;;;-1.00;89.60
70254;BME280;57649;42.968;1.608;2023-02-10T04:06:38;99174.44;;;-0.93;89.32
70254;BME280;57649;42.968;1.608;2023-02-10T04:09:04;99175.38;;;-0.94;89.22
70254;BME280;57649;42.968;1.608;2023-02-10T04:11:29;99163.94;;;-0.93;88.70
70254;BME280;57649;42.968;1.608;2023-02-10T04:13:54;99173.97;;;-1.05;88.40
70254;BME280;57649;42.968;1.608;2023-02-10T04:16:20;99181.16;;;-1.10;88.66
70254;BME280;57649;42.968;1.608;2023-02-10T04:18:48;99194.22;;;-1.08;88.69
70254;BME280;57649;42.968;1.608;2023-02-10T04:21:15;99202.75;;;-1.28;88.96
70254;BME280;57649;42.968;1.608;2023-02-10T04:23:40;99194.13;;;-1.32;89.29
70254;BME280;57649;42.968;1.608;2023-02-10T04:26:06;99204.63;;;-1.32;89.04
70254;BME280;57649;42.968;1.608;2023-02-10T04:28:31;99211.03;;;-1.39;89.98
70254;BME280;57649;42.968;1.608;2023-02-10T04:30:59;99217.59;;;-1.54;90.00
70254;BME280;57649;42.968;1.608;2023-02-10T04:33:25;99220.75;;;-1.71;90.55
70254;BME280;57649;42.968;1.608;2023-02-10T04:35:51;99213.41;;;-1.60;90.55
70254;BME280;57649;42.968;1.608;2023-02-10T04:38:17;99231.09;;;-1.65;90.62
70254;BME280;57649;42.968;1.608;2023-02-10T04:40:43;99220.38;;;-1.59;90.44
70254;BME280;57649;42.968;1.608;2023-02-10T04:43:10;99222.81;;;-1.52;90.78
70254;BME280;57649;42.968;1.608;2023-02-10T04:45:36;99233.28;;;-1.51;90.69
70254;BME280;57649;42.968;1.608;2023-02-10T04:48:02;99215.66;;;-1.47;90.00
70254;BME280;57649;42.968;1.608;2023-02-10T04:50:27;99217.22;;;-1.42;89.27
70254;BME280;57649;42.968;1.608;2023-02-10T04:52:53;99215.41;;;-1.40;88.41
70254;BME280;57649;42.968;1.608;2023-02-10T04:55:18;99211.66;;;-1.32;88.54
70254;BME280;57649;42.968;1.608;2023-02-10T04:57:44;99215.84;;;-1.27;87.98
70254;BME280;57649;42.968;1.608;2023-02-10T05:00:10;99217.13;;;-1.39;88.28
70254;BME280;57649;42.968;1.608;2023-02-10T05:02:37;99223.00;;;-1.59;89.29
70254;BME280;57649;42.968;1.608;2023-02-10T05:05:03;99225.47;;;-1.54;90.05
70254;BME280;57649;42.968;1.608;2023-02-10T05:07:29;99220.41;;;-1.60;89.29
70254;BME280;57649;42.968;1.608;2023-02-10T05:09:54;99214.34;;;-1.62;89.30
70254;BME280;57649;42.968;1.608;2023-02-10T05:12:20;99215.03;;;-1.56;89.83
70254;BME280;57649;42.968;1.608;2023-02-10T05:14:45;99212.22;;;-1.49;89.99
70254;BME280;57649;42.968;1.608;2023-02-10T05:17:11;99212.16;;;-1.48;89.80
70254;BME280;57649;42.968;1.608;2023-02-10T05:19:36;99217.50;;;-1.51;89.78
70254;BME280;57649;42.968;1.608;2023-02-10T05:22:01;99205.31;;;-1.52;89.80
70254;BME280;57649;42.968;1.608;2023-02-10T05:24:27;99209.78;;;-1.56;90.67
70254;BME280;57649;42.968;1.608;2023-02-10T05:26:53;99209.53;;;-1.48;90.54
70254;BME280;57649;42.968;1.608;2023-02-10T05:29:19;99209.53;;;-1.48;89.75
70254;BME280;57649;42.968;1.608;2023-02-10T05:31:44;99207.84;;;-1.50;89.20
70254;BME280;57649;42.968;1.608;2023-02-10T05:34:10;99206.09;;;-1.50;88.74
70254;BME280;57649;42.968;1.608;2023-02-10T05:36:35;99215.03;;;-1.56;88.66
70254;BME280;57649;42.968;1.608;2023-02-10T05:39:01;99213.44;;;-1.61;89.02
70254;BME280;57649;42.968;1.608;2023-02-10T05:41:44;99210.63;;;-1.55;89.40
70254;BME280;57649;42.968;1.608;2023-02-10T05:44:10;99214.19;;;-1.58;89.18
70254;BME280;57649;42.968;1.608;2023-02-10T05:46:35;99220.34;;;-1.57;88.42
70254;BME280;57649;42.968;1.608;2023-02-10T05:49:01;99220.28;;;-1.56;88.89
70254;BME280;57649;42.968;1.608;2023-02-10T05:51:26;99225.47;;;-1.54;88.37
70254;BME280;57649;42.968;1.608;2023-02-10T05:53:51;99227.56;;;-1.65;88.71
70254;BME280;57649;42.968;1.608;2023-02-10T05:56:19;99227.41;;;-1.59;88.66
70254;BME280;57649;42.968;1.608;2023-02-10T05:58:44;99217.03;;;-1.64;87.91
70254;BME280;57649;42.968;1.608;2023-02-10T06:01:10;99227.09;;;-1.78;88.42
70254;BME280;57649;42.968;1.608;2023-02-10T06:03:35;99220.53;;;-1.93;88.65
70254;BME280;57649;42.968;1.608;2023-02-10T06:06:01;99214.25;;;-1.87;88.49
70254;BME280;57649;42.968;1.608;2023-02-10T06:08:27;99225.66;;;-1.88;88.29
70254;BME280;57649;42.968;1.608;2023-02-10T06:10:53;99227.69;;;-1.98;88.35
70254;BME280;57649;42.968;1.608;2023-02-10T06:13:18;99220.72;;;-1.99;89.57
70254;BME280;57649;42.968;1.608;2023-02-10T06:15:43;99224.75;;;-1.87;89.42
70254;BME280;57649;42.968;1.608;2023-02-10T06:18:09;99220.09;;;-1.78;88.24
70254;BME280;57649;42.968;1.608;2023-02-10T06:20:34;99223.34;;;-1.69;87.77
70254;BME280;57649;42.968;1.608;2023-02-10T06:23:00;99220.84;;;-1.74;88.47
70254;BME280;57649;42.968;1.608;2023-02-10T06:25:25;99223.25;;;-1.66;88.68
70254;BME280;57649;42.968;1.608;2023-02-10T06:27:51;99226.03;;;-1.72;88.42
70254;BME280;57649;42.968;1.608;2023-02-10T06:30:16;99218.81;;;-1.64;87.55
70254;BME280;57649;42.968;1.608;2023-02-10T06:32:42;99228.66;;;-1.43;87.27
70254;BME280;57649;42.968;1.608;2023-02-10T06:35:07;99222.75;;;-1.51;86.48
70254;BME280;57649;42.968;1.608;2023-02-10T06:37:32;99226.97;;;-1.45;86.46
70254;BME280;57649;42.968;1.608;2023-02-10T06:39:58;99224.78;;;-1.59;86.42
70254;BME280;57649;42.968;1.608;2023-02-10T06:42:23;99236.56;;;-1.44;85.90
70254;BME280;57649;42.968;1.608;2023-02-10T06:44:49;99233.56;;;-1.60;86.11
70254;BME280;57649;42.968;1.608;2023-02-10T06:47:14;99236.56;;;-1.44;85.66
70254;BME280;57649;42.968;1.608;2023-02-10T06:49:40;99231.72;;;-1.58;85.84
70254;BME280;57649;42.968;1.608;2023-02-10T06:52:05;99231.28;;;-1.43;85.16
70254;BME280;57649;42.968;1.608;2023-02-10T06:54:31;99238.66;;;-1.27;84.49
70254;BME280;57649;42.968;1.608;2023-02-10T06:56:56;99234.78;;;-1.44;84.81
70254;BME280;57649;42.968;1.608;2023-02-10T06:59:22;99240.47;;;-1.29;84.67
70254;BME280;57649;42.968;1.608;2023-02-10T07:01:47;99238.69;;;-1.29;84.78
70254;BME280;57649;42.968;1.608;2023-02-10T07:04:13;99251.28;;;-1.39;85.36
70254;BME280;57649;42.968;1.608;2023-02-10T07:06:39;99243.31;;;-1.36;84.61
70254;BME280;57649;42.968;1.608;2023-02-10T07:09:05;99245.22;;;-1.41;84.14
70254;BME280;57649;42.968;1.608;2023-02-10T07:11:32;99254.97;;;-1.44;84.77
70254;BME280;57649;42.968;1.608;2023-02-10T07:13:57;99265.47;;;-1.44;85.66
70254;BME280;57649;42.968;1.608;2023-02-10T07:16:23;99264.88;;;-1.54;85.88
70254;BME280;57649;42.968;1.608;2023-02-10T07:18:48;99266.81;;;-1.59;85.88
70254;BME280;57649;42.968;1.608;2023-02-10T07:21:14;99266.59;;;-1.53;85.37
70254;BME280;57649;42.968;1.608;2023-02-10T07:23:39;99272.53;;;-1.46;84.66
70254;BME280;57649;42.968;1.608;2023-02-10T07:26:05;99270.81;;;-1.47;84.40
70254;BME280;57649;42.968;1.608;2023-02-10T07:28:31;99267.38;;;-1.49;85.89
70254;BME280;57649;42.968;1.608;2023-02-10T07:30:56;99269.84;;;-1.45;84.91
70254;BME280;57649;42.968;1.608;2023-02-10T07:33:21;99269.28;;;-1.55;84.90
70254;BME280;57649;42.968;1.608;2023-02-10T07:35:47;99278.72;;;-1.49;84.43
70254;BME280;57649;42.968;1.608;2023-02-10T07:38:13;99290.69;;;-1.39;85.24
70254;BME280;57649;42.968;1.608;2023-02-10T07:40:38;99281.31;;;-1.47;84.69
70254;BME280;57649;42.968;1.608;2023-02-10T07:43:03;99282.47;;;-1.28;84.31
70254;BME280;57649;42.968;1.608;2023-02-10T07:45:29;99283.69;;;-1.40;84.91
70254;BME280;57649;42.968;1.608;2023-02-10T07:47:58;99282.38;;;-1.53;85.28
70254;BME280;57649;42.968;1.608;2023-02-10T07:50:24;99281.09;;;-1.69;85.62
70254;BME280;57649;42.968;1.608;2023-02-10T07:52:50;99291.63;;;-1.41;85.55
70254;BME280;57649;42.968;1.608;2023-02-10T07:55:15;99290.59;;;-1.36;85.16
70254;BME280;57649;42.968;1.608;2023-02-10T07:57:41;99290.31;;;-1.26;84.66
70254;BME280;57649;42.968;1.608;2023-02-10T08:00:10;99290.50;;;-1.32;84.47
70254;BME280;57649;42.968;1.608;2023-02-10T08:02:37;99295.56;;;-1.26;84.35
70254;BME280;57649;42.968;1.608;2023-02-10T08:05:03;99286.47;;;-1.16;83.98
70254;BME280;57649;42.968;1.608;2023-02-10T08:07:28;99285.59;;;-1.15;83.44
70254;BME280;57649;42.968;1.608;2023-02-10T08:09:54;99286.31;;;-1.10;83.40
70254;BME280;57649;42.968;1.608;2023-02-10T08:12:19;99283.69;;;-1.10;82.66
70254;BME280;57649;42.968;1.608;2023-02-10T08:14:45;99280.06;;;-0.81;81.84
70254;BME280;57649;42.968;1.608;2023-02-10T08:17:11;99286.25;;;-0.82;80.86
70254;BME280;57649;42.968;1.608;2023-02-10T08:19:36;99277.28;;;-0.76;80.40
70254;BME280;57649;42.968;1.608;2023-02-10T08:22:05;99294.41;;;-0.64;80.06
70254;BME280;57649;42.968;1.608;2023-02-10T08:24:31;99292.06;;;-0.72;78.78
70254;BME280;57649;42.968;1.608;2023-02-10T08:26:56;99287.38;;;-0.62;78.58
70254;BME280;57649;42.968;1.608;2023-02-10T08:29:22;99290.75;;;-0.59;79.35
70254;BME280;57649;42.968;1.608;2023-02-10T08:31:51;99293.06;;;-0.49;78.67
70254;BME280;57649;42.968;1.608;2023-02-10T08:34:19;99285.00;;;-0.45;77.91
70254;BME280;57649;42.968;1.608;2023-02-10T08:36:46;99276.50;;;-0.28;77.10
70254;BME280;57649;42.968;1.608;2023-02-10T08:39:12;99284.31;;;-0.25;76.20
70254;BME280;57649;42.968;1.608;2023-02-10T08:41:38;99286.28;;;-0.06;75.27
70254;BME280;57649;42.968;1.608;2023-02-10T08:44:04;99289.75;;;-0.06;74.46
70254;BME280;57649;42.968;1.608;2023-02-10T08:46:29;99294.03;;;-0.02;74.13
70254;BME280;57649;42.968;1.608;2023-02-10T08:48:55;99282.88;;;0.15;73.21
70254;BME280;57649;42.968;1.608;2023-02-10T08:51:20;99285.50;;;0.15;72.82
70254;BME280;57649;42.968;1.608;2023-02-10T08:53:46;99287.44;;;0.34;72.82
70254;BME280;57649;42.968;1.608;2023-02-10T08:56:15;99294.50;;;0.33;72.34
70254;BME280;57649;42.968;1.608;2023-02-10T08:58:41;99281.78;;;0.45;72.50
70254;BME280;57649;42.968;1.608;2023-02-10T09:01:13;99275.47;;;0.49;72.43
70254;BME280;57649;42.968;1.608;2023-02-10T09:03:40;99283.75;;;0.62;71.18
70254;BME280;57649;42.968;1.608;2023-02-10T09:06:12;99285.81;;;0.77;70.99
70254;BME280;57649;42.968;1.608;2023-02-10T09:08:40;99282.91;;;0.83;70.96
70254;BME280;57649;42.968;1.608;2023-02-10T09:11:07;99272.00;;;0.92;71.08
70254;BME280;57649;42.968;1.608;2023-02-10T09:13:33;99279.84;;;0.94;70.85
70254;BME280;57649;42.968;1.608;2023-02-10T09:15:58;99285.22;;;1.13;71.53
70254;BME280;57649;42.968;1.608;2023-02-10T09:18:24;99277.25;;;1.14;70.89
70254;BME280;57649;42.968;1.608;2023-02-10T09:20:49;99280.25;;;1.27;70.46
70254;BME280;57649;42.968;1.608;2023-02-10T09:23:15;99277.88;;;1.21;69.72
70254;BME280;57649;42.968;1.608;2023-02-10T09:25:40;99278.28;;;1.32;68.76
70254;BME280;57649;42.968;1.608;2023-02-10T09:28:06;99288.41;;;1.43;67.89
70254;BME280;57649;42.968;1.608;2023-02-10T09:30:31;99280.09;;;1.52;68.01
70254;BME280;57649;42.968;1.608;2023-02-10T09:32:56;99277.22;;;1.78;67.58
70254;BME280;57649;42.968;1.608;2023-02-10T09:35:22;99273.00;;;1.94;67.10
70254;BME280;57649;42.968;1.608;2023-02-10T09:37:48;99285.78;;;2.24;66.81
70254;BME280;57649;42.968;1.608;2023-02-10T09:40:25;99273.84;;;2.53;63.39
70254;BME280;57649;42.968;1.608;2023-02-10T09:42:59;99269.47;;;3.07;62.81
70254;BME280;57649;42.968;1.608;2023-02-10T09:45:33;99269.28;;;3.47;60.65
70254;BME280;57649;42.968;1.608;2023-02-10T09:53:28;99251.72;;;4.94;54.33
70254;BME280;57649;42.968;1.608;2023-02-10T09:58:45;99249.31;;;5.66;49.62
70254;BME280;57649;42.968;1.608;2023-02-10T10:03:54;99243.88;;;6.26;48.15
70254;BME280;57649;42.968;1.608;2023-02-10T10:06:32;99246.34;;;6.58;46.68
70254;BME280;57649;42.968;1.608;2023-02-10T10:09:40;99242.78;;;6.72;45.31
70254;BME280;57649;42.968;1.608;2023-02-10T10:12:18;99237.38;;;7.01;44.66
70254;BME280;57649;42.968;1.608;2023-02-10T10:14:44;99236.72;;;6.97;45.58
70254;BME280;57649;42.968;1.608;2023-02-10T10:33:32;99223.91;;;7.82;44.95
70254;BME280;57649;42.968;1.608;2023-02-10T10:36:00;99217.50;;;7.98;43.07
70254;BME280;57649;42.968;1.608;2023-02-10T10:38:32;99218.44;;;8.09;43.03
70254;BME280;57649;42.968;1.608;2023-02-10T10:41:22;99214.28;;;8.44;42.69
70254;BME280;57649;42.968;1.608;2023-02-10T10:43:47;99204.03;;;8.25;41.53
70254;BME280;57649;42.968;1.608;2023-02-10T10:48:53;99197.91;;;8.61;41.69
70254;BME280;57649;42.968;1.608;2023-02-10T10:51:20;99195.97;;;8.88;41.98
70254;BME280;57649;42.968;1.608;2023-02-10T10:53:50;99201.28;;;9.00;40.58
70254;BME280;57649;42.968;1.608;2023-02-10T10:59:15;99183.81;;;9.08;39.80
70254;BME280;57649;42.968;1.608;2023-02-10T11:01:45;99185.22;;;9.24;39.52
70254;BME280;57649;42.968;1.608;2023-02-10T11:04:16;99191.28;;;9.51;38.45
70254;BME280;57649;42.968;1.608;2023-02-10T11:06:43;99183.06;;;9.76;37.56
70254;BME280;57649;42.968;1.608;2023-02-10T11:09:32;99170.84;;;9.61;37.31
70254;BME280;57649;42.968;1.608;2023-02-10T11:12:28;99172.34;;;9.76;37.08
70254;BME280;57649;42.968;1.608;2023-02-10T11:14:51;99160.38;;;9.58;37.58
70254;BME280;57649;42.968;1.608;2023-02-10T11:19:59;99156.53;;;9.96;38.50
70254;BME280;57649;42.968;1.608;2023-02-10T11:22:25;99149.47;;;10.29;38.19
70254;BME280;57649;42.968;1.608;2023-02-10T11:24:54;99146.78;;;10.63;36.16
70254;BME280;57649;42.968;1.608;2023-02-10T11:27:20;99144.88;;;10.19;34.75
70254;BME280;57649;42.968;1.608;2023-02-10T11:29:54;99139.50;;;10.42;33.51
70254;BME280;57649;42.968;1.608;2023-02-10T11:32:25;99133.44;;;10.17;31.90
70254;BME280;57649;42.968;1.608;2023-02-10T11:35:00;99124.19;;;10.21;32.26
70254;BME280;57649;42.968;1.608;2023-02-10T11:37:29;99126.16;;;10.08;33.25
70254;BME280;57649;42.968;1.608;2023-02-10T11:39:57;99123.94;;;10.25;32.89
70254;BME280;57649;42.968;1.608;2023-02-10T11:42:26;99120.66;;;10.21;33.54
70254;BME280;57649;42.968;1.608;2023-02-10T11:45:03;99115.16;;;10.45;33.22
70254;BME280;57649;42.968;1.608;2023-02-10T11:47:31;99125.84;;;10.56;33.27
70254;BME280;57649;42.968;1.608;2023-02-10T11:49:57;99120.38;;;10.58;33.94
70254;BME280;57649;42.968;1.608;2023-02-10T11:52:26;99117.63;;;10.37;34.66
70254;BME280;57649;42.968;1.608;2023-02-10T11:54:53;99111.00;;;10.52;34.78
70254;BME280;57649;42.968;1.608;2023-02-10T12:06:25;99102.19;;;9.95;34.39
70254;BME280;57649;42.968;1.608;2023-02-10T12:17:24;99080.19;;;9.92;36.10
70254;BME280;57649;42.968;1.608;2023-02-10T12:25:55;99069.00;;;9.75;37.72
70254;BME280;57649;42.968;1.608;2023-02-10T12:37:01;99069.03;;;9.53;37.81
70254;BME280;57649;42.968;1.608;2023-02-10T12:39:46;99054.06;;;9.73;36.39
70254;BME280;57649;42.968;1.608;2023-02-10T12:42:52;99053.41;;;10.03;36.52
70254;BME280;57649;42.968;1.608;2023-02-10T12:53:57;99045.53;;;9.45;41.13
70254;BME280;57649;42.968;1.608;2023-02-10T12:56:41;99048.47;;;9.42;40.62
70254;BME280;57649;42.968;1.608;2023-02-10T12:59:15;99044.47;;;9.48;39.94
70254;BME280;57649;42.968;1.608;2023-02-10T13:01:51;99044.09;;;9.52;42.11
70254;BME280;57649;42.968;1.608;2023-02-10T13:04:26;99039.84;;;9.61;42.24
70254;BME280;57649;42.968;1.608;2023-02-10T13:12:54;99033.28;;;9.42;42.37
70254;BME280;57649;42.968;1.608;2023-02-10T13:17:49;99025.38;;;9.41;41.19
70254;BME280;57649;42.968;1.608;2023-02-10T13:20:40;99016.97;;;9.12;41.51
70254;BME280;57649;42.968;1.608;2023-02-10T13:23:21;99011.88;;;9.54;41.81
70254;BME280;57649;42.968;1.608;2023-02-10T13:31:17;99004.72;;;9.43;43.15
70254;BME280;57649;42.968;1.608;2023-02-10T13:36:18;99007.28;;;9.33;43.12
70254;BME280;57649;42.968;1.608;2023-02-10T13:39:04;99001.81;;;9.35;43.59
70254;BME280;57649;42.968;1.608;2023-02-10T13:41:33;98992.69;;;9.49;43.46
70254;BME280;57649;42.968;1.608;2023-02-10T13:44:19;99000.97;;;9.34;43.47
70254;BME280;57649;42.968;1.608;2023-02-10T13:49:23;98986.88;;;9.43;42.48
70254;BME280;57649;42.968;1.608;2023-02-10T13:51:49;98989.16;;;9.48;43.13
70254;BME280;57649;42.968;1.608;2023-02-10T13:54:35;98983.22;;;9.44;42.69
70254;BME280;57649;42.968;1.608;2023-02-10T13:57:01;98990.75;;;9.39;43.01
70254;BME280;57649;42.968;1.608;2023-02-10T13:59:36;98985.06;;;9.21;43.37
70254;BME280;57649;42.968;1.608;2023-02-10T14:02:15;98983.22;;;9.33;42.25
70254;BME280;57649;42.968;1.608;2023-02-10T14:04:45;98977.25;;;9.52;41.38
70254;BME280;57649;42.968;1.608;2023-02-10T14:10:44;98977.03;;;9.44;41.21
70254;BME280;57649;42.968;1.608;2023-02-10T14:15:36;98970.81;;;9.55;41.44
70254;BME280;57649;42.968;1.608;2023-02-10T14:20:46;98963.75;;;9.65;41.97
70254;BME280;57649;42.968;1.608;2023-02-10T14:23:19;98963.28;;;9.49;41.75
70254;BME280;57649;42.968;1.608;2023-02-10T14:25:47;98960.28;;;9.31;41.82
70254;BME280;57649;42.968;1.608;2023-02-10T14:28:27;98957.47;;;9.55;41.62
70254;BME280;57649;42.968;1.608;2023-02-10T14:31:00;98966.22;;;9.46;41.88
70254;BME280;57649;42.968;1.608;2023-02-10T14:33:32;98967.19;;;9.44;42.09
70254;BME280;57649;42.968;1.608;2023-02-10T14:36:00;98964.78;;;9.41;41.50
70254;BME280;57649;42.968;1.608;2023-02-10T14:38:29;98970.44;;;9.48;41.37
70254;BME280;57649;42.968;1.608;2023-02-10T14:40:56;98970.44;;;9.48;42.02
70254;BME280;57649;42.968;1.608;2023-02-10T14:43:24;98964.41;;;9.35;41.53
70254;BME280;57649;42.968;1.608;2023-02-10T14:45:51;98969.84;;;9.56;41.17
70254;BME280;57649;42.968;1.608;2023-02-10T14:48:19;98971.06;;;9.52;41.20
70254;BME280;57649;42.968;1.608;2023-02-10T14:50:57;98969.84;;;9.44;41.05
70254;BME280;57649;42.968;1.608;2023-02-10T14:53:23;98966.56;;;9.30;41.79
70254;BME280;57649;42.968;1.608;2023-02-10T14:55:58;98977.38;;;9.39;41.08
70254;BME280;57649;42.968;1.608;2023-02-10T14:58:23;98972.75;;;9.30;41.43
70254;BME280;57649;42.968;1.608;2023-02-10T15:03:24;98975.81;;;9.25;40.64
70254;BME280;57649;42.968;1.608;2023-02-10T15:05:52;98979.72;;;9.21;40.72
70254;BME280;57649;42.968;1.608;2023-02-10T15:08:34;98972.53;;;9.33;40.87
70254;BME280;57649;42.968;1.608;2023-02-10T15:11:06;98973.03;;;9.27;40.84
70254;BME280;57649;42.968;1.608;2023-02-10T15:13:42;98983.72;;;9.16;41.29
70254;BME280;57649;42.968;1.608;2023-02-10T15:16:10;98981.75;;;9.06;41.10
70254;BME280;57649;42.968;1.608;2023-02-10T15:18:41;98978.09;;;9.08;40.91
70254;BME280;57649;42.968;1.608;2023-02-10T15:21:35;98979.44;;;9.13;42.15
70254;BME280;57649;42.968;1.608;2023-02-10T15:24:01;98971.31;;;9.15;41.71